createdAt,value
2023-05-03T07:05:34.284Z,2.65
2023-05-03T07:06:48.114Z,2.92
2023-05-03T07:09:22.000Z,2.50
2023-05-03T07:11:39.358Z,2.20
2023-05-03T07:12:54.065Z,2.22
2023-05-03T07:13:56.948Z,2.30
2023-05-03T07:14:59.188Z,2.50
2023-05-03T07:16:03.522Z,2.08
2023-05-03T07:17:19.624Z,2.30
2023-05-03T07:19:15.497Z,2.45
2023-05-03T07:20:16.021Z,3.00
2023-05-03T07:21:44.712Z,2.50
2023-05-03T07:22:47.578Z,2.58
2023-05-03T07:23:49.967Z,1.58
2023-05-03T07:24:54.955Z,1.50
2023-05-03T07:26:14.850Z,1.33
2023-05-03T07:27:25.045Z,1.00
2023-05-03T07:28:27.248Z,1.00
2023-05-03T07:29:38.088Z,1.27
2023-05-03T07:30:43.275Z,1.35
2023-05-03T07:31:53.292Z,1.20
2023-05-03T07:33:00.117Z,1.50
2023-05-03T07:34:12.337Z,1.75
2023-05-03T07:35:15.550Z,1.60
2023-05-03T07:36:22.142Z,1.85
2023-05-03T07:37:29.636Z,1.40
2023-05-03T07:38:37.893Z,1.50
2023-05-03T07:39:43.910Z,1.70
2023-05-03T07:41:11.405Z,1.55
2023-05-03T07:42:25.625Z,1.55
2023-05-03T07:43:33.608Z,2.45
2023-05-03T07:45:20.514Z,2.60
2023-05-03T07:46:41.795Z,2.67
2023-05-03T07:47:59.397Z,3.25
2023-05-03T07:49:39.851Z,3.28
2023-05-03T07:52:18.126Z,1.70
2023-05-03T07:53:35.179Z,1.40
2023-05-03T07:55:35.618Z,1.30
2023-05-03T07:57:27.291Z,1.15
2023-05-03T07:59:07.643Z,1.48
2023-05-03T08:00:42.610Z,1.60
2023-05-03T08:02:10.652Z,1.45
2023-05-03T08:03:25.590Z,1.85
2023-05-03T08:04:41.336Z,1.90
2023-05-03T08:06:10.311Z,2.05
2023-05-03T08:07:27.350Z,1.80
2023-05-03T08:08:40.704Z,1.83
2023-05-03T08:11:43.764Z,1.80
2023-05-03T08:12:51.802Z,2.00
2023-05-03T08:14:21.661Z,1.67
2023-05-03T08:15:37.963Z,1.48
2023-05-03T08:16:54.979Z,1.80
2023-05-03T08:19:52.036Z,1.75
2023-05-03T08:21:25.124Z,1.60
2023-05-03T08:22:33.469Z,1.60
2023-05-03T08:23:58.002Z,1.63
2023-05-03T08:25:37.491Z,1.52
2023-05-03T08:26:46.713Z,1.30
2023-05-03T08:27:50.779Z,1.55
2023-05-03T08:29:21.184Z,1.70
2023-05-03T08:30:32.157Z,1.30
2023-05-03T08:31:35.315Z,1.60
2023-05-03T08:32:37.585Z,1.55
2023-05-03T08:33:40.009Z,1.83
2023-05-03T08:34:42.437Z,1.50
2023-05-03T08:35:44.559Z,1.60
2023-05-03T08:36:46.676Z,1.55
2023-05-03T08:37:48.850Z,1.85
2023-05-03T08:38:50.986Z,1.60
2023-05-03T08:39:53.069Z,1.38
2023-05-03T08:40:58.244Z,1.50
2023-05-03T08:42:00.635Z,1.58
2023-05-03T08:43:09.134Z,1.30
2023-05-03T08:44:14.582Z,1.50
2023-05-03T08:45:17.585Z,1.35
2023-05-03T08:46:19.910Z,1.55
2023-05-03T08:47:22.265Z,1.40
2023-05-03T08:48:24.515Z,1.83
2023-05-03T08:49:27.161Z,1.88
2023-05-03T08:50:29.523Z,1.60
2023-05-03T08:51:32.130Z,1.33
2023-05-03T08:52:35.421Z,1.25
2023-05-03T08:53:37.908Z,1.40
2023-05-03T08:54:40.367Z,1.42
2023-05-03T08:55:42.757Z,1.30
2023-05-03T08:56:46.663Z,1.40
2023-05-03T08:57:48.798Z,1.30
2023-05-03T08:58:52.283Z,1.20
2023-05-03T08:59:58.514Z,1.30
2023-05-03T09:01:05.007Z,1.27
2023-05-03T09:02:09.204Z,1.20
2023-05-03T09:03:11.897Z,1.52
2023-05-03T09:04:14.285Z,1.10
2023-05-03T09:05:34.187Z,1.02
2023-05-03T09:06:37.419Z,1.38
2023-05-03T09:07:39.548Z,1.23
2023-05-03T09:08:44.199Z,1.20
2023-05-03T09:09:47.382Z,1.30
2023-05-03T09:10:49.781Z,1.10
2023-05-03T09:11:52.826Z,1.33
2023-05-03T09:12:59.851Z,1.30
2023-05-03T09:14:11.039Z,1.30
2023-05-03T09:16:24.369Z,1.20
2023-05-03T09:17:27.078Z,1.27
2023-05-03T09:18:30.654Z,1.30
2023-05-03T09:19:50.460Z,1.10
2023-05-03T09:20:53.250Z,1.50
2023-05-03T09:22:07.182Z,1.73
2023-05-03T09:23:09.894Z,1.80
2023-05-03T09:24:14.093Z,1.13
2023-05-03T09:25:16.355Z,1.25
2023-05-03T09:26:28.197Z,1.30
2023-05-03T09:27:30.362Z,1.48
2023-05-03T09:28:41.874Z,1.05
2023-05-03T09:29:46.149Z,1.10
2023-05-03T09:30:49.328Z,1.10
2023-05-03T09:31:59.896Z,1.00
2023-05-03T09:33:02.080Z,1.13
2023-05-03T09:34:23.197Z,1.17
2023-05-03T09:35:25.509Z,1.20
2023-05-03T09:36:28.170Z,1.17
2023-05-03T09:37:38.689Z,1.25
2023-05-03T09:38:40.999Z,1.40
2023-05-03T09:39:43.993Z,1.40
2023-05-03T09:40:48.081Z,1.00
2023-05-03T09:41:50.520Z,1.10
2023-05-03T09:43:09.175Z,1.23
2023-05-03T09:44:11.307Z,1.30
2023-05-03T09:45:24.298Z,1.17
2023-05-03T09:46:26.603Z,1.10
2023-05-03T09:47:31.970Z,1.13
2023-05-03T09:48:34.957Z,0.85
2023-05-03T09:49:37.910Z,1.42
2023-05-03T09:50:41.188Z,1.25
2023-05-03T09:51:44.053Z,1.10
2023-05-03T09:52:47.213Z,1.15
2023-05-03T09:53:49.855Z,1.00
2023-05-03T09:54:53.981Z,1.00
2023-05-03T09:55:57.971Z,1.00
2023-05-03T09:57:02.428Z,0.88
2023-05-03T09:58:08.612Z,1.10
2023-05-03T09:59:10.739Z,1.27
2023-05-03T10:00:17.495Z,1.20
2023-05-03T10:01:22.421Z,0.90
2023-05-03T10:02:24.727Z,1.00
2023-05-03T10:03:32.548Z,1.20
2023-05-03T10:04:41.651Z,1.10
2023-05-03T10:05:47.453Z,0.90
2023-05-03T10:06:50.662Z,1.00
2023-05-03T10:07:54.501Z,0.80
2023-05-03T10:09:03.720Z,1.00
2023-05-03T10:10:08.113Z,0.90
2023-05-03T10:11:13.795Z,0.80
2023-05-03T10:12:18.717Z,1.33
2023-05-03T10:13:22.671Z,0.90
2023-05-03T10:14:25.551Z,0.90
2023-05-03T10:15:30.804Z,1.05
2023-05-03T10:16:36.840Z,1.23
2023-05-03T10:17:47.330Z,1.40
2023-05-03T10:18:54.569Z,1.33
2023-05-03T10:20:04.628Z,1.23
2023-05-03T10:21:14.619Z,1.40
2023-05-03T10:22:16.743Z,1.23
2023-05-03T10:23:18.907Z,1.10
2023-05-03T10:24:21.347Z,1.17
2023-05-03T10:25:23.547Z,1.77
2023-05-03T10:26:26.582Z,3.10
2023-05-03T10:27:41.763Z,2.55
2023-05-03T10:28:44.354Z,4.82
2023-05-03T10:29:49.120Z,1.95
2023-05-03T10:30:53.078Z,1.73
2023-05-03T10:31:55.367Z,1.40
2023-05-03T10:32:57.827Z,1.40
2023-05-03T10:34:00.137Z,1.60
2023-05-03T10:35:06.204Z,1.40
2023-05-03T10:36:13.332Z,1.17
2023-05-03T10:37:15.512Z,1.63
2023-05-03T10:38:20.469Z,1.40
2023-05-03T10:39:22.913Z,1.30
2023-05-03T10:40:40.774Z,1.55
2023-05-03T10:41:42.955Z,1.38
2023-05-03T10:42:46.599Z,1.58
2023-05-03T10:43:48.887Z,1.30
2023-05-03T10:44:52.350Z,1.20
2023-05-03T10:45:56.690Z,1.15
2023-05-03T10:47:11.210Z,1.00
2023-05-03T10:48:20.595Z,1.38
2023-05-03T10:49:24.125Z,0.90
2023-05-03T10:50:27.621Z,1.10
2023-05-03T10:51:37.104Z,0.88
2023-05-03T10:52:49.053Z,1.02
2023-05-03T10:53:51.572Z,0.90
2023-05-03T10:54:55.139Z,0.70
2023-05-03T10:56:05.853Z,0.80
2023-05-03T10:57:44.117Z,0.90
2023-05-03T10:59:02.911Z,0.98
2023-05-03T11:00:22.265Z,1.02
2023-05-03T11:01:30.198Z,1.13
2023-05-03T11:02:37.881Z,1.30
2023-05-03T11:03:54.438Z,1.17
2023-05-03T11:05:04.466Z,1.02
2023-05-03T11:06:07.034Z,1.65
2023-05-03T11:07:10.237Z,1.30
2023-05-03T11:08:14.509Z,1.50
2023-05-03T11:09:19.284Z,1.48
2023-05-03T11:10:22.223Z,1.30
2023-05-03T11:11:27.193Z,1.23
2023-05-03T11:12:29.447Z,0.98
2023-05-03T11:13:32.163Z,1.33
2023-05-03T11:14:34.582Z,0.85
2023-05-03T11:15:37.004Z,1.10
2023-05-03T11:16:51.381Z,1.15
2023-05-03T11:18:03.204Z,1.00
2023-05-03T11:19:13.882Z,1.20
2023-05-03T11:20:19.749Z,1.13
2023-05-03T11:21:25.353Z,1.50
2023-05-03T11:22:38.320Z,0.90
2023-05-03T11:23:44.774Z,0.88
2023-05-03T11:24:56.904Z,0.93
2023-05-03T11:26:27.257Z,0.93
2023-05-03T11:27:36.106Z,1.05
2023-05-03T11:29:03.159Z,1.40
2023-05-03T11:30:17.858Z,3.85
2023-05-03T11:31:24.589Z,2.05
2023-05-03T11:32:30.564Z,1.17
2023-05-03T11:33:35.318Z,1.10
2023-05-03T11:34:44.175Z,0.90
2023-05-03T11:35:57.527Z,1.20
2023-05-03T11:37:03.359Z,0.90
2023-05-03T11:38:17.538Z,1.05
2023-05-03T11:39:25.062Z,0.90
2023-05-03T11:40:37.452Z,1.00
2023-05-03T11:41:52.300Z,1.00
2023-05-03T11:42:59.863Z,0.90
2023-05-03T11:44:16.332Z,1.27
2023-05-03T11:45:34.388Z,1.17
2023-05-03T11:46:42.395Z,1.10
2023-05-03T11:47:58.793Z,1.05
2023-05-03T11:49:13.298Z,1.88
2023-05-03T11:50:52.775Z,0.90
2023-05-03T11:52:10.689Z,1.13
2023-05-03T11:53:49.061Z,1.20
2023-05-03T11:55:02.001Z,1.40
2023-05-03T11:56:23.871Z,1.30
2023-05-03T11:57:37.750Z,1.48
2023-05-03T11:59:01.517Z,2.17
2023-05-03T12:00:17.924Z,1.58
2023-05-03T12:01:23.978Z,1.80
2023-05-03T12:02:56.195Z,1.50
2023-05-03T12:04:13.935Z,1.70
2023-05-03T12:05:20.970Z,1.65
2023-05-03T12:06:36.064Z,1.70
2023-05-03T12:07:50.747Z,1.20
2023-05-03T12:09:00.205Z,0.90
2023-05-03T12:10:23.024Z,1.20
2023-05-03T12:11:48.130Z,1.10
2023-05-03T12:13:05.897Z,1.33
2023-05-03T12:14:16.095Z,7.35
2023-05-03T12:15:30.085Z,1.50
2023-05-03T12:17:00.170Z,1.15
2023-05-03T12:18:19.119Z,1.10
2023-05-03T12:19:32.294Z,0.80
2023-05-03T12:21:54.149Z,0.82
2023-05-03T12:23:09.770Z,0.85
2023-05-03T12:24:19.616Z,1.05
2023-05-03T12:25:27.868Z,0.90
2023-05-03T12:26:38.077Z,1.50
2023-05-03T12:27:54.702Z,0.88
2023-05-03T12:29:13.357Z,1.60
2023-05-03T12:30:23.500Z,1.65
2023-05-03T12:31:34.396Z,1.67
2023-05-03T12:34:03.847Z,1.45
2023-05-03T12:35:53.462Z,0.75
2023-05-03T12:38:03.276Z,2.00
2023-05-03T12:39:27.584Z,1.30
2023-05-03T12:40:47.739Z,0.93
2023-05-03T12:42:20.417Z,0.98
2023-05-03T12:43:29.365Z,0.75
2023-05-03T12:45:04.146Z,0.90
2023-05-03T12:46:32.080Z,1.50
2023-05-03T12:47:52.282Z,1.80
2023-05-03T12:49:09.527Z,2.65
2023-05-03T12:50:37.667Z,1.00
2023-05-03T12:53:48.004Z,1.58
2023-05-03T12:54:54.980Z,0.90
2023-05-03T12:56:00.095Z,2.38
2023-05-03T12:57:30.499Z,1.27
2023-05-03T13:00:03.329Z,1.08
2023-05-03T13:02:17.889Z,1.00
2023-05-03T13:04:56.098Z,1.10
2023-05-03T13:06:13.353Z,1.20
2023-05-03T13:07:30.000Z,1.08
2023-05-03T13:08:50.237Z,1.17
2023-05-03T13:10:38.486Z,0.77
2023-05-03T13:12:06.713Z,0.90
2023-05-03T13:13:41.454Z,1.13
2023-05-03T13:16:19.942Z,1.08
2023-05-03T13:17:38.281Z,3.42
2023-05-03T13:18:42.947Z,1.40
2023-05-03T13:19:47.149Z,1.10
2023-05-03T13:20:50.788Z,1.00
2023-05-03T13:21:54.505Z,1.08
2023-05-03T13:22:57.205Z,1.00
2023-05-03T13:23:59.414Z,1.10
2023-05-03T13:25:05.803Z,0.90
2023-05-03T13:26:08.117Z,1.17
2023-05-03T13:27:13.178Z,1.13
2023-05-03T13:28:20.117Z,1.20
2023-05-03T13:29:23.216Z,1.48
2023-05-03T13:30:30.365Z,1.65
2023-05-03T13:31:33.267Z,1.83
2023-05-03T13:32:35.650Z,1.80
2023-05-03T13:33:40.729Z,1.90
2023-05-03T13:34:43.355Z,1.90
2023-05-03T13:35:48.149Z,1.90
2023-05-03T13:36:50.558Z,2.53
2023-05-03T13:37:56.412Z,2.50
2023-05-03T13:39:03.199Z,1.70
2023-05-03T13:40:07.034Z,1.90
2023-05-03T13:41:09.858Z,2.38
2023-05-03T13:42:13.675Z,3.20
2023-05-03T13:43:17.053Z,2.90
2023-05-03T13:44:26.841Z,3.20
2023-05-03T13:45:44.838Z,3.60
2023-05-03T13:46:52.638Z,2.80
2023-05-03T13:48:19.177Z,2.40
2023-05-03T13:49:22.216Z,2.90
2023-05-03T13:50:24.467Z,2.53
2023-05-03T13:51:28.656Z,3.50
2023-05-03T13:52:34.853Z,3.63
2023-05-03T13:53:44.816Z,3.72
2023-05-03T13:54:47.277Z,2.63
2023-05-03T13:55:49.866Z,2.20
2023-05-03T13:56:58.426Z,1.83
2023-05-03T13:58:01.018Z,1.67
2023-05-03T13:59:04.417Z,2.03
2023-05-03T14:00:08.725Z,2.33
2023-05-03T14:01:11.477Z,2.30
2023-05-03T14:02:15.703Z,2.30
2023-05-03T14:03:18.436Z,1.58
2023-05-03T14:04:20.967Z,2.38
2023-05-03T14:05:26.272Z,1.90
2023-05-03T14:06:30.404Z,1.95
2023-05-03T14:07:40.849Z,2.85
2023-05-03T14:08:44.437Z,4.90
2023-05-03T14:09:46.768Z,2.33
2023-05-03T14:10:48.973Z,1.60
2023-05-03T14:11:51.642Z,1.60
2023-05-03T14:12:53.983Z,1.60
2023-05-03T14:13:59.622Z,1.67
2023-05-03T14:15:03.746Z,1.65
2023-05-03T14:16:06.574Z,2.45
2023-05-03T14:17:09.159Z,2.00
2023-05-03T14:18:11.802Z,1.55
2023-05-03T14:19:18.143Z,0.95
2023-05-03T14:20:23.242Z,1.10
2023-05-03T14:21:25.630Z,2.15
2023-05-03T14:22:28.145Z,0.90
2023-05-03T14:23:30.606Z,1.30
2023-05-03T14:24:34.319Z,0.82
2023-05-03T14:25:36.575Z,0.88
2023-05-03T14:26:38.735Z,1.00
2023-05-03T14:27:41.319Z,1.80
2023-05-03T14:28:43.743Z,1.00
2023-05-03T14:29:47.106Z,0.80
2023-05-03T14:30:51.657Z,0.85
2023-05-03T14:31:54.338Z,0.90
2023-05-03T14:32:56.727Z,1.38
2023-05-03T14:34:00.068Z,1.02
2023-05-03T14:35:02.836Z,0.93
2023-05-03T14:36:12.082Z,0.90
2023-05-03T14:37:14.556Z,0.90
2023-05-03T14:38:20.261Z,0.93
2023-05-03T14:39:22.674Z,0.93
2023-05-03T14:40:29.717Z,0.95
2023-05-03T14:41:44.610Z,0.90
2023-05-03T14:42:54.815Z,0.98
2023-05-03T14:44:00.476Z,1.55
2023-05-03T14:45:04.186Z,0.88
2023-05-03T14:46:08.317Z,4.20
2023-05-03T14:47:10.638Z,4.10
2023-05-03T14:48:23.765Z,4.30
2023-05-03T14:49:26.565Z,1.58
2023-05-03T14:50:32.120Z,2.10
2023-05-03T14:51:35.489Z,2.17
2023-05-03T14:52:42.812Z,1.73
2023-05-03T14:53:45.102Z,0.93
2023-05-03T14:55:47.666Z,1.00
2023-05-03T14:57:03.522Z,0.90
2023-05-03T14:58:18.083Z,1.20
2023-05-03T14:59:41.564Z,0.90
2023-05-03T15:00:50.495Z,1.10
2023-05-03T15:01:58.097Z,1.20
2023-05-03T15:03:17.725Z,1.38
2023-05-03T15:04:27.169Z,1.42
2023-05-03T15:06:03.065Z,1.77
2023-05-03T15:07:16.780Z,1.80
2023-05-03T15:08:29.018Z,1.70
2023-05-03T15:09:42.827Z,1.60
2023-05-03T15:11:20.578Z,1.83
2023-05-03T15:12:29.445Z,1.90
2023-05-03T15:13:59.252Z,1.70
2023-05-03T15:15:22.786Z,1.77
2023-05-03T15:16:57.578Z,1.75
2023-05-03T15:18:06.998Z,2.00
2023-05-03T15:19:09.479Z,1.70
2023-05-03T15:20:15.458Z,1.70
2023-05-03T15:21:20.115Z,1.70
2023-05-03T15:22:25.663Z,1.92
2023-05-03T15:23:34.134Z,1.60
2023-05-03T15:24:59.076Z,1.98
2023-05-03T15:26:31.619Z,1.80
2023-05-03T15:27:53.038Z,1.98
2023-05-03T15:29:13.864Z,1.95
2023-05-03T15:30:36.735Z,2.90
2023-05-03T15:34:07.535Z,2.58
2023-05-03T15:35:19.702Z,2.30
2023-05-03T15:36:22.551Z,2.47
2023-05-03T15:37:38.554Z,2.90
2023-05-03T15:40:52.000Z,2.50
2023-05-03T15:41:59.863Z,2.35
2023-05-03T15:43:29.071Z,1.73
2023-05-03T15:45:09.985Z,2.00
2023-05-03T15:47:08.656Z,2.35
2023-05-03T15:48:18.972Z,1.98
2023-05-03T15:49:31.935Z,1.88
2023-05-03T15:50:37.110Z,1.85
2023-05-03T15:51:54.629Z,2.10
2023-05-03T15:53:00.441Z,2.00
2023-05-03T15:54:10.028Z,1.90
2023-05-03T15:55:15.554Z,1.40
2023-05-03T15:56:18.709Z,1.20
2023-05-03T15:57:21.589Z,0.95
2023-05-03T15:58:34.543Z,1.50
2023-05-03T15:59:42.117Z,1.20
2023-05-03T16:00:44.582Z,2.60
2023-05-03T16:02:10.662Z,1.30
2023-05-03T16:03:18.494Z,1.10
2023-05-03T16:04:24.697Z,1.23
2023-05-03T16:05:27.463Z,1.45
2023-05-03T16:06:32.940Z,1.45
2023-05-03T16:07:38.034Z,1.27
2023-05-03T16:09:03.672Z,1.50
2023-05-03T16:10:12.616Z,1.40
2023-05-03T16:13:12.492Z,1.23
2023-05-03T16:14:29.366Z,1.40
2023-05-03T16:15:35.088Z,1.42
2023-05-03T16:16:41.108Z,1.00
2023-05-03T16:17:43.834Z,1.40
2023-05-03T16:18:49.727Z,1.02
2023-05-03T16:19:53.684Z,1.23
2023-05-03T16:20:55.986Z,1.02
2023-05-03T16:21:58.219Z,1.33
2023-05-03T16:23:03.416Z,1.40
2023-05-03T16:24:12.876Z,1.20
2023-05-03T16:25:23.814Z,1.38
2023-05-03T16:26:31.832Z,1.70
2023-05-03T16:27:48.586Z,3.05
2023-05-03T16:28:56.209Z,1.60
2023-05-03T16:30:20.210Z,1.50
2023-05-03T16:31:23.037Z,1.17
2023-05-03T16:32:26.241Z,1.50
2023-05-03T16:33:28.347Z,1.55
2023-05-03T16:34:32.009Z,2.17
2023-05-03T16:35:36.630Z,1.48
2023-05-03T16:36:45.599Z,1.88
2023-05-03T16:37:50.071Z,1.48
2023-05-03T16:38:59.295Z,1.80
2023-05-03T16:40:02.985Z,2.20
2023-05-03T16:41:15.508Z,1.60
2023-05-03T16:42:18.567Z,1.63
2023-05-03T16:43:21.054Z,1.70
2023-05-03T16:44:23.427Z,1.60
2023-05-03T16:45:29.161Z,2.42
2023-05-03T16:46:36.410Z,1.75
2023-05-03T16:47:41.818Z,1.63
2023-05-03T16:48:45.008Z,1.70
2023-05-03T16:49:49.445Z,2.33
2023-05-03T16:51:07.631Z,1.98
2023-05-03T16:52:22.165Z,1.60
2023-05-03T16:53:35.988Z,1.33
2023-05-03T16:54:50.837Z,1.65
2023-05-03T16:55:56.696Z,1.52
2023-05-03T16:57:04.436Z,1.20
2023-05-03T16:58:27.108Z,1.20
2023-05-03T16:59:38.029Z,1.15
2023-05-03T17:00:45.259Z,1.83
2023-05-03T17:01:47.687Z,1.80
2023-05-03T17:03:13.132Z,1.73
2023-05-03T17:04:19.031Z,1.38
2023-05-03T17:05:21.759Z,1.67
2023-05-03T17:06:27.179Z,2.10
2023-05-03T17:07:34.859Z,1.27
2023-05-03T17:08:44.665Z,1.77
2023-05-03T17:09:46.910Z,1.95
2023-05-03T17:11:14.373Z,2.17
2023-05-03T17:12:23.786Z,3.10
2023-05-03T17:13:47.561Z,2.08
2023-05-03T17:14:50.977Z,2.03
2023-05-03T17:16:11.560Z,2.60
2023-05-03T17:17:30.868Z,1.98
2023-05-03T17:18:41.112Z,1.60
2023-05-03T17:19:58.087Z,1.70
2023-05-03T17:21:14.867Z,1.63
2023-05-03T17:22:27.619Z,1.83
2023-05-03T17:23:29.821Z,3.00
2023-05-03T17:24:50.521Z,3.80
2023-05-03T17:25:57.561Z,2.63
2023-05-03T17:27:00.069Z,2.40
2023-05-03T17:28:02.201Z,2.00
2023-05-03T17:29:06.492Z,1.90
2023-05-03T17:31:45.417Z,2.00
2023-05-03T17:34:02.375Z,1.80
2023-05-03T17:35:11.810Z,1.80
2023-05-03T17:36:20.904Z,2.00
2023-05-03T17:37:34.743Z,2.42
2023-05-03T17:38:47.211Z,1.92
2023-05-03T17:39:52.162Z,1.60
2023-05-03T17:41:24.470Z,1.63
2023-05-03T17:42:27.175Z,1.98
2023-05-03T17:43:46.275Z,1.90
2023-05-03T17:45:04.703Z,1.80
2023-05-03T17:46:29.893Z,1.98
2023-05-03T17:47:33.708Z,1.65
2023-05-03T17:48:36.567Z,2.13
2023-05-03T17:49:38.759Z,1.85
2023-05-03T17:51:11.031Z,2.40
2023-05-03T17:52:51.213Z,2.40
2023-05-03T17:54:12.245Z,2.63
2023-05-03T17:55:35.340Z,2.72
2023-05-03T17:56:50.956Z,3.42
2023-05-03T17:58:04.227Z,3.53
2023-05-03T17:59:19.866Z,3.50
2023-05-03T18:00:36.273Z,4.03
2023-05-03T18:01:53.732Z,4.90
2023-05-03T18:03:13.362Z,4.80
2023-05-03T18:04:16.600Z,4.65
2023-05-03T18:05:19.604Z,4.78
2023-05-03T18:06:38.802Z,4.80
2023-05-03T18:07:44.749Z,4.53
2023-05-03T18:08:57.446Z,3.92
2023-05-03T18:10:16.458Z,3.97
2023-05-03T18:11:28.763Z,3.85
2023-05-03T18:12:31.297Z,3.50
2023-05-03T18:13:48.376Z,3.80
2023-05-03T18:15:01.996Z,3.80
2023-05-03T18:16:31.622Z,4.00
2023-05-03T18:17:41.684Z,3.55
2023-05-03T18:18:53.941Z,3.72
2023-05-03T18:20:06.513Z,3.80
2023-05-03T18:21:11.776Z,3.45
2023-05-03T18:22:13.972Z,3.40
2023-05-03T18:23:17.329Z,4.05
2023-05-03T18:24:37.359Z,4.60
2023-05-03T18:26:03.188Z,5.05
2023-05-03T18:27:06.795Z,6.00
2023-05-03T18:28:15.009Z,6.00
2023-05-03T18:29:19.353Z,5.93
2023-05-03T18:30:30.369Z,5.95
2023-05-03T18:32:01.875Z,7.10
2023-05-03T18:33:05.259Z,5.93
2023-05-03T18:34:31.542Z,6.75
2023-05-03T18:35:57.297Z,8.20
2023-05-03T18:37:12.614Z,9.10
2023-05-03T18:38:19.454Z,8.98
2023-05-03T18:39:22.797Z,9.40
2023-05-03T18:40:30.859Z,9.38
2023-05-03T18:41:45.718Z,9.45
2023-05-03T18:43:26.777Z,8.27
2023-05-03T18:44:49.715Z,7.13
2023-05-03T18:46:10.581Z,6.53
2023-05-03T18:47:20.973Z,6.10
2023-05-03T18:48:23.254Z,5.63
2023-05-03T18:49:29.129Z,5.78
2023-05-03T18:50:31.721Z,5.18
2023-05-03T18:51:33.987Z,5.75
2023-05-03T18:52:36.198Z,5.38
2023-05-03T18:53:38.578Z,5.63
2023-05-03T18:54:43.880Z,5.95
2023-05-03T18:55:52.074Z,5.18
2023-05-03T18:56:54.305Z,5.25
2023-05-03T18:57:56.516Z,5.47
2023-05-03T18:58:58.769Z,5.60
2023-05-03T19:00:01.734Z,5.85
2023-05-03T19:01:05.805Z,6.15
2023-05-03T19:02:08.816Z,5.45
2023-05-03T19:03:11.224Z,5.30
2023-05-03T19:04:14.849Z,5.60
2023-05-03T19:05:18.683Z,4.93
2023-05-03T19:06:23.068Z,4.90
2023-05-03T19:07:28.217Z,5.53
2023-05-03T19:08:30.618Z,5.28
2023-05-03T19:09:33.106Z,6.00
2023-05-03T19:10:35.408Z,5.20
2023-05-03T19:11:37.612Z,4.93
2023-05-03T19:12:41.850Z,5.72
2023-05-03T19:13:47.502Z,6.40
2023-05-03T19:15:12.704Z,5.93
2023-05-03T19:16:21.635Z,6.47
2023-05-03T19:17:27.432Z,6.80
2023-05-03T19:18:29.574Z,6.82
2023-05-03T19:19:31.772Z,7.00
2023-05-03T19:20:35.313Z,6.75
2023-05-03T19:21:45.421Z,6.75
2023-05-03T19:22:50.763Z,6.55
2023-05-03T19:23:53.052Z,6.70
2023-05-03T19:25:00.880Z,6.35
2023-05-03T19:26:19.124Z,6.43
2023-05-03T19:27:25.094Z,6.60
2023-05-03T19:28:31.723Z,6.95
2023-05-03T19:29:34.006Z,6.00
2023-05-03T19:30:36.505Z,6.53
2023-05-03T19:31:39.025Z,6.50
2023-05-03T19:32:41.217Z,6.85
2023-05-03T19:33:55.978Z,7.22
2023-05-03T19:35:00.733Z,6.70
2023-05-03T19:36:08.274Z,7.28
2023-05-03T19:37:10.790Z,7.05
2023-05-03T19:38:13.130Z,6.97
2023-05-03T19:39:15.879Z,6.30
2023-05-03T19:40:18.570Z,6.10
2023-05-03T19:41:21.051Z,6.65
2023-05-03T19:42:27.636Z,7.57
2023-05-03T19:43:29.795Z,7.15
2023-05-03T19:44:35.463Z,7.78
2023-05-03T19:45:42.423Z,7.72
2023-05-03T19:46:45.912Z,7.90
2023-05-03T19:47:52.224Z,7.13
2023-05-03T19:48:55.888Z,7.10
2023-05-03T19:49:58.046Z,7.70
2023-05-03T19:51:00.492Z,7.65
2023-05-03T19:52:06.051Z,8.00
2023-05-03T19:53:10.648Z,11.43
2023-05-03T19:54:15.725Z,13.82
2023-05-03T19:55:20.893Z,12.13
2023-05-03T19:56:23.223Z,10.93
2023-05-03T19:57:29.063Z,12.82
2023-05-03T19:58:32.235Z,11.98
2023-05-03T19:59:37.166Z,13.55
2023-05-03T20:00:39.764Z,13.55
2023-05-03T20:01:42.129Z,13.25
2023-05-03T20:02:44.546Z,12.93
2023-05-03T20:03:47.324Z,14.55
2023-05-03T20:04:50.003Z,12.82
2023-05-03T20:05:52.144Z,12.70
2023-05-03T20:06:54.290Z,11.93
2023-05-03T20:07:57.882Z,9.77
2023-05-03T20:09:00.250Z,9.50
2023-05-03T20:10:02.674Z,8.27
2023-05-03T20:11:04.979Z,9.98
2023-05-03T20:12:07.358Z,9.07
2023-05-03T20:13:11.791Z,8.48
2023-05-03T20:14:18.685Z,8.93
2023-05-03T20:15:20.943Z,9.18
2023-05-03T20:16:30.158Z,9.75
2023-05-03T20:17:43.335Z,11.60
2023-05-03T20:18:45.694Z,12.10
2023-05-03T20:19:49.961Z,13.48
2023-05-03T20:20:55.854Z,13.77
2023-05-03T20:22:15.077Z,14.13
2023-05-03T20:23:23.326Z,13.38
2023-05-03T20:24:28.492Z,13.32
2023-05-03T20:25:30.678Z,12.75
2023-05-03T20:26:32.766Z,11.00
2023-05-03T20:27:34.860Z,10.82
2023-05-03T20:28:50.506Z,10.95
2023-05-03T20:30:03.608Z,10.30
2023-05-03T20:31:10.983Z,10.38
2023-05-03T20:32:13.691Z,11.25
2023-05-03T20:33:18.972Z,12.07
2023-05-03T20:34:22.017Z,13.20
2023-05-03T20:35:29.658Z,12.00
2023-05-03T20:36:32.604Z,12.73
2023-05-03T20:37:39.477Z,12.13
2023-05-03T20:38:43.199Z,11.73
2023-05-03T20:39:45.466Z,11.95
2023-05-03T20:40:51.362Z,12.98
2023-05-03T20:41:55.367Z,12.65
2023-05-03T20:42:57.452Z,11.80
2023-05-03T20:43:59.635Z,12.35
2023-05-03T20:45:01.906Z,12.57
2023-05-03T20:46:04.243Z,12.88
2023-05-03T20:47:06.484Z,12.57
2023-05-03T20:48:09.000Z,12.55
2023-05-03T20:49:11.241Z,12.45
2023-05-03T20:50:13.463Z,13.35
2023-05-03T20:51:15.680Z,13.30
2023-05-03T20:52:17.866Z,13.70
2023-05-03T20:53:20.127Z,13.05
2023-05-03T20:54:23.624Z,13.73
2023-05-03T20:55:25.978Z,12.73
2023-05-03T20:56:28.080Z,13.57
2023-05-03T20:57:31.966Z,12.95
2023-05-03T20:58:34.413Z,13.07
2023-05-03T20:59:36.935Z,11.98
2023-05-03T21:00:39.204Z,12.65
2023-05-03T21:01:41.638Z,12.10
2023-05-03T21:02:44.112Z,11.73
2023-05-03T21:03:46.514Z,12.50
2023-05-03T21:04:48.692Z,11.80
2023-05-03T21:05:52.011Z,13.05
2023-05-03T21:06:54.603Z,13.38
2023-05-03T21:07:56.792Z,13.07
2023-05-03T21:08:59.072Z,12.52
2023-05-03T21:10:02.948Z,12.70
2023-05-03T21:11:05.458Z,12.32
2023-05-03T21:12:09.682Z,12.35
2023-05-03T21:13:12.003Z,12.70
2023-05-03T21:14:14.496Z,12.27
2023-05-03T21:15:16.800Z,13.73
2023-05-03T21:16:19.064Z,13.65
2023-05-03T21:17:21.320Z,14.10
2023-05-03T21:18:24.807Z,14.57
2023-05-03T21:19:27.233Z,13.95
2023-05-03T21:20:29.464Z,13.45
2023-05-03T21:21:32.025Z,13.07
2023-05-03T21:22:34.200Z,14.25
2023-05-03T21:23:36.329Z,14.48
2023-05-03T21:24:38.535Z,13.63
2023-05-03T21:25:42.183Z,15.48
2023-05-03T21:26:44.453Z,15.85
2023-05-03T21:27:46.626Z,15.57
2023-05-03T21:28:48.735Z,15.35
2023-05-03T21:29:51.849Z,14.65
2023-05-03T21:30:54.828Z,15.35
2023-05-03T21:31:57.077Z,16.30
2023-05-03T21:32:59.207Z,16.10
2023-05-03T21:34:03.276Z,15.13
2023-05-03T21:35:06.315Z,14.52
2023-05-03T21:36:08.849Z,14.20
2023-05-03T21:37:11.731Z,14.18
2023-05-03T21:38:15.395Z,14.18
2023-05-03T21:39:17.564Z,13.45
2023-05-03T21:40:21.576Z,12.98
2023-05-03T21:41:25.126Z,13.27
2023-05-03T21:42:27.285Z,11.85
2023-05-03T21:43:29.578Z,10.95
2023-05-03T21:44:31.809Z,8.02
2023-05-03T21:45:33.942Z,7.80
2023-05-03T21:46:36.322Z,7.32
2023-05-03T21:47:38.948Z,7.38
2023-05-03T21:48:41.187Z,7.35
2023-05-03T21:49:43.861Z,7.65
2023-05-03T21:50:46.140Z,7.45
2023-05-03T21:51:48.419Z,9.00
2023-05-03T21:52:50.604Z,7.88
2023-05-03T21:53:52.925Z,8.70
2023-05-03T21:54:55.186Z,7.82
2023-05-03T21:55:57.415Z,8.63
2023-05-03T21:57:01.004Z,8.32
2023-05-03T21:58:03.229Z,10.90
2023-05-03T21:59:05.795Z,13.43
2023-05-03T22:00:14.266Z,11.30
2023-05-03T22:01:22.524Z,13.30
2023-05-03T22:02:25.381Z,13.80
2023-05-03T22:03:27.749Z,14.30
2023-05-03T22:04:30.847Z,13.80
2023-05-03T22:05:33.233Z,14.63
2023-05-03T22:06:35.586Z,13.70
2023-05-03T22:07:38.769Z,13.57
2023-05-03T22:08:40.988Z,13.30
2023-05-03T22:09:46.001Z,12.20
2023-05-03T22:10:48.115Z,8.73
2023-05-03T22:11:51.048Z,10.05
2023-05-03T22:12:54.760Z,10.25
2023-05-03T22:14:07.391Z,10.02
2023-05-03T22:15:11.214Z,8.98
2023-05-03T22:16:13.636Z,8.77
2023-05-03T22:17:15.953Z,7.60
2023-05-03T22:18:18.287Z,8.25
2023-05-03T22:19:20.518Z,7.72
2023-05-03T22:20:22.822Z,7.85
2023-05-03T22:21:25.004Z,9.07
2023-05-03T22:22:27.113Z,11.13
2023-05-03T22:23:29.406Z,12.18
2023-05-03T22:24:31.525Z,12.27
2023-05-03T22:25:33.824Z,11.32
2023-05-03T22:26:36.220Z,10.10
2023-05-03T22:27:38.327Z,13.15
2023-05-03T22:28:41.840Z,12.02
2023-05-03T22:29:44.183Z,12.75
2023-05-03T22:30:46.905Z,9.27
2023-05-03T22:31:49.222Z,13.18
2023-05-03T22:32:51.934Z,8.82
2023-05-03T22:33:54.132Z,12.13
2023-05-03T22:34:56.457Z,8.75
2023-05-03T22:35:58.581Z,10.43
2023-05-03T22:37:00.749Z,7.65
2023-05-03T22:38:03.742Z,9.20
2023-05-03T22:39:06.379Z,8.75
2023-05-03T22:40:09.608Z,5.78
2023-05-03T22:41:11.928Z,12.25
2023-05-03T22:42:13.999Z,7.20
2023-05-03T22:43:16.277Z,7.57
2023-05-03T22:44:19.779Z,6.45